createdAt,value
2019-04-05T00:02:21.524Z,4.20
2019-04-05T00:04:55.258Z,4.10
2019-04-05T00:07:28.827Z,4.10
2019-04-05T00:10:02.560Z,4.10
2019-04-05T00:12:36.393Z,4.10
2019-04-05T00:15:15.766Z,4.10
2019-04-05T00:17:45.503Z,4.10
2019-04-05T00:20:19.269Z,4.10
2019-04-05T00:22:52.956Z,4.10
2019-04-05T00:25:26.695Z,4.10
2019-04-05T00:28:00.396Z,4.10
2019-04-05T00:30:34.137Z,4.10
2019-04-05T00:33:09.478Z,4.20
2019-04-05T00:35:43.223Z,4.20
2019-04-05T00:38:16.918Z,4.10
2019-04-05T00:40:50.597Z,4.10
2019-04-05T00:43:24.301Z,4.10
2019-04-05T00:45:58.033Z,4.20
2019-04-05T00:48:31.660Z,4.20
2019-04-05T00:51:05.323Z,4.20
2019-04-05T00:53:39.038Z,4.20
2019-04-05T00:56:12.733Z,4.20
2019-04-05T00:58:46.430Z,4.20
2019-04-05T01:01:20.175Z,4.10
2019-04-05T01:03:53.884Z,4.10
2019-04-05T01:06:27.552Z,4.00
2019-04-05T01:09:01.256Z,4.00
2019-04-05T01:11:35.001Z,4.00
2019-04-05T01:14:08.743Z,4.10
2019-04-05T01:16:42.430Z,4.10
2019-04-05T01:19:16.140Z,4.20
2019-04-05T01:21:50.540Z,4.20
2019-04-05T01:24:25.466Z,4.10
2019-04-05T01:27:00.302Z,4.10
2019-04-05T01:29:33.995Z,4.10
2019-04-05T01:32:07.668Z,4.10
2019-04-05T01:34:41.361Z,4.00
2019-04-05T01:37:15.032Z,4.00
2019-04-05T01:39:48.669Z,4.00
2019-04-05T01:42:23.108Z,4.00
2019-04-05T01:44:56.939Z,4.00
2019-04-05T01:47:30.604Z,4.00
2019-04-05T01:50:06.336Z,4.00
2019-04-05T01:52:41.171Z,4.10
2019-04-05T01:55:14.898Z,4.10
2019-04-05T01:57:48.606Z,4.10
2019-04-05T02:00:22.348Z,4.10
2019-04-05T02:02:56.060Z,4.10
2019-04-05T02:05:29.799Z,4.10
2019-04-05T02:08:03.508Z,4.10
2019-04-05T02:10:37.265Z,4.10
2019-04-05T02:13:10.980Z,4.10
2019-04-05T02:15:44.708Z,4.10
2019-04-05T02:18:18.458Z,4.10
2019-04-05T02:20:52.093Z,4.10
2019-04-05T02:23:25.819Z,4.10
2019-04-05T02:25:59.494Z,4.10
2019-04-05T02:28:33.194Z,4.10
2019-04-05T02:31:06.863Z,4.10
2019-04-05T02:33:40.568Z,4.10
2019-04-05T02:36:14.324Z,4.10
2019-04-05T02:38:48.038Z,4.10
2019-04-05T02:41:24.243Z,4.10
2019-04-05T02:43:59.938Z,4.10
2019-04-05T02:46:34.073Z,4.10
2019-04-05T02:49:09.035Z,4.10
2019-04-05T02:51:45.712Z,4.00
2019-04-05T02:54:20.009Z,4.00
2019-04-05T02:56:54.047Z,4.00
2019-04-05T02:59:28.052Z,4.00
2019-04-05T03:02:02.473Z,4.00
2019-04-05T03:04:36.268Z,4.00
2019-04-05T03:07:10.036Z,4.00
2019-04-05T03:09:44.000Z,4.00
2019-04-05T03:12:19.235Z,4.00
2019-04-05T03:14:53.459Z,4.00
2019-04-05T03:17:27.435Z,4.10
2019-04-05T03:20:02.865Z,4.10
2019-04-05T03:22:37.099Z,4.10
2019-04-05T03:25:11.133Z,4.10
2019-04-05T03:27:45.098Z,4.20
2019-04-05T03:30:18.900Z,4.10
2019-04-05T03:32:52.641Z,4.10
2019-04-05T03:35:26.739Z,4.00
2019-04-05T03:38:00.776Z,4.00
2019-04-05T03:40:34.612Z,4.00
2019-04-05T03:43:08.339Z,4.00
2019-04-05T03:45:43.067Z,4.00
2019-04-05T03:48:16.886Z,4.00
2019-04-05T03:50:52.110Z,4.10
2019-04-05T03:53:25.735Z,4.10
2019-04-05T03:55:59.483Z,4.10
2019-04-05T03:58:33.186Z,4.10
2019-04-05T04:01:07.115Z,4.10
2019-04-05T04:03:40.865Z,4.00
2019-04-05T04:06:14.664Z,4.00
2019-04-05T04:08:48.801Z,4.00
2019-04-05T04:11:22.738Z,4.00
2019-04-05T04:13:56.701Z,4.00
2019-04-05T04:16:30.379Z,4.00
2019-04-05T04:19:04.125Z,4.00
2019-04-05T04:21:43.824Z,4.00
2019-04-05T04:24:18.273Z,4.00
2019-04-05T04:26:51.998Z,4.00
2019-04-05T04:29:25.825Z,4.00
2019-04-05T04:31:59.869Z,4.10
2019-04-05T04:34:33.673Z,4.10
2019-04-05T04:37:07.418Z,4.00
2019-04-05T04:39:41.665Z,4.00
2019-04-05T04:42:16.110Z,4.00
2019-04-05T04:44:49.900Z,4.00
2019-04-05T04:47:26.907Z,4.00
2019-04-05T04:50:00.330Z,4.10
2019-04-05T04:52:34.380Z,4.10
2019-04-05T04:55:08.189Z,4.20
2019-04-05T04:57:42.230Z,4.20
2019-04-05T05:00:16.436Z,4.20
2019-04-05T05:02:50.407Z,4.30
2019-04-05T05:05:24.313Z,4.30
2019-04-05T05:07:58.148Z,4.40
2019-04-05T05:10:31.858Z,4.40
2019-04-05T05:13:05.592Z,4.40
2019-04-05T05:15:39.532Z,4.40
2019-04-05T05:18:13.708Z,4.40
2019-04-05T05:20:47.470Z,4.40
2019-04-05T05:23:21.299Z,4.40
2019-04-05T05:25:55.221Z,4.40
2019-04-05T05:28:29.051Z,4.40
2019-04-05T05:31:03.049Z,4.50
2019-04-05T05:33:36.804Z,4.40
2019-04-05T05:36:10.827Z,4.50
2019-04-05T05:38:44.906Z,4.50
2019-04-05T05:41:18.586Z,4.50
2019-04-05T05:43:52.222Z,4.50
2019-04-05T05:46:25.897Z,4.50
2019-04-05T05:48:59.597Z,4.50
2019-04-05T05:51:33.743Z,4.50
2019-04-05T05:54:07.547Z,4.40
2019-04-05T05:56:41.215Z,4.50
2019-04-05T05:59:14.928Z,4.50
2019-04-05T06:01:49.008Z,4.40
2019-04-05T06:04:22.719Z,4.40
2019-04-05T06:06:56.519Z,4.40
2019-04-05T06:09:30.215Z,4.40
2019-04-05T06:12:04.031Z,4.40
2019-04-05T06:14:37.735Z,4.40
2019-04-05T06:17:11.481Z,4.50
2019-04-05T06:19:45.171Z,4.50
2019-04-05T06:22:18.837Z,4.50
2019-04-05T06:24:52.538Z,4.60
2019-04-05T06:27:26.354Z,4.60
2019-04-05T06:30:00.056Z,4.60
2019-04-05T06:32:33.724Z,4.60
2019-04-05T06:35:07.454Z,4.60
2019-04-05T06:37:41.124Z,4.70
2019-04-05T06:40:14.758Z,4.70
2019-04-05T06:42:48.427Z,4.80
2019-04-05T06:45:22.067Z,4.70
2019-04-05T06:47:55.727Z,4.70
2019-04-05T06:50:29.280Z,4.80
2019-04-05T06:53:02.876Z,4.80
2019-04-05T06:55:36.443Z,4.80
2019-04-05T06:58:10.503Z,4.80
2019-04-05T07:00:56.343Z,4.80
2019-04-05T07:03:19.737Z,4.70
2019-04-05T07:05:53.397Z,4.80
2019-04-05T07:08:27.105Z,4.90
2019-04-05T07:11:02.308Z,5.00
2019-04-05T07:13:36.092Z,5.00
2019-04-05T07:16:11.223Z,5.00
2019-04-05T07:18:45.422Z,5.00
2019-04-05T07:21:19.204Z,5.00
2019-04-05T07:23:52.876Z,4.90
2019-04-05T07:26:26.482Z,4.90
2019-04-05T07:29:00.289Z,4.90
2019-04-05T07:31:33.911Z,4.90
2019-04-05T07:34:07.594Z,5.00
2019-04-05T07:36:41.298Z,5.10
2019-04-05T07:39:14.971Z,5.10
2019-04-05T07:41:48.692Z,5.10
2019-04-05T07:44:22.423Z,5.20
2019-04-05T07:46:56.162Z,5.20
2019-04-05T07:49:29.904Z,5.30
2019-04-05T07:52:03.599Z,5.40
2019-04-05T07:54:37.254Z,5.40
2019-04-05T07:57:10.883Z,5.50
2019-04-05T07:59:44.553Z,5.40
2019-04-05T08:02:18.248Z,5.30
2019-04-05T08:04:54.622Z,5.40
2019-04-05T08:07:30.316Z,5.40
2019-04-05T08:10:06.047Z,5.30
2019-04-05T08:12:40.128Z,5.20
2019-04-05T08:15:14.229Z,5.10
2019-04-05T08:17:47.901Z,5.10
2019-04-05T08:20:21.602Z,5.20
2019-04-05T08:22:55.261Z,5.30
2019-04-05T08:25:28.976Z,5.40
2019-04-05T08:28:02.716Z,5.40
2019-04-05T08:30:36.339Z,5.30
2019-04-05T08:33:10.074Z,5.40
2019-04-05T08:35:43.780Z,5.40
2019-04-05T08:38:17.579Z,5.40
2019-04-05T08:40:51.237Z,5.50
2019-04-05T08:43:25.033Z,5.60
2019-04-05T08:45:58.771Z,5.60
2019-04-05T08:48:32.398Z,5.70
2019-04-05T08:51:06.060Z,5.70
2019-04-05T08:53:39.684Z,5.80
2019-04-05T08:56:13.433Z,5.70
2019-04-05T08:58:47.119Z,5.70
2019-04-05T09:01:20.783Z,5.70
2019-04-05T09:03:54.407Z,5.90
2019-04-05T09:06:28.145Z,5.80
2019-04-05T09:09:01.849Z,5.80
2019-04-05T09:11:35.664Z,5.90
2019-04-05T09:14:09.372Z,5.80
2019-04-05T09:16:43.104Z,5.90
2019-04-05T09:19:23.429Z,5.90
2019-04-05T09:21:52.127Z,5.90
2019-04-05T09:24:25.855Z,5.90
2019-04-05T09:26:59.485Z,5.90
2019-04-05T09:29:33.150Z,5.80
2019-04-05T09:32:06.853Z,5.80
2019-04-05T09:34:40.594Z,5.90
2019-04-05T09:37:14.231Z,5.80
2019-04-05T09:39:47.907Z,5.80
2019-04-05T09:42:21.607Z,5.80
2019-04-05T09:44:55.333Z,5.90
2019-04-05T09:47:29.040Z,6.00
2019-04-05T09:50:02.756Z,6.10
2019-04-05T09:52:36.643Z,6.30
2019-04-05T09:55:10.374Z,6.30
2019-04-05T09:57:44.069Z,6.20
2019-04-05T10:00:24.980Z,6.20
2019-04-05T10:02:58.675Z,6.10
2019-04-05T10:05:32.413Z,6.10
2019-04-05T10:08:06.140Z,6.00
2019-04-05T10:10:39.791Z,6.10
2019-04-05T10:13:13.419Z,6.10
2019-04-05T10:15:47.157Z,6.20
2019-04-05T10:18:20.900Z,6.30
2019-04-05T10:20:54.448Z,6.10
2019-04-05T10:23:28.104Z,6.10
2019-04-05T10:26:01.738Z,6.10
2019-04-05T10:28:35.444Z,6.10
2019-04-05T10:31:09.200Z,6.00
2019-04-05T10:33:42.942Z,6.00
2019-04-05T10:36:16.609Z,6.00
2019-04-05T10:38:50.302Z,6.00
2019-04-05T10:41:23.985Z,5.90
2019-04-05T10:43:58.546Z,5.90
2019-04-05T10:46:32.469Z,6.00
2019-04-05T10:49:06.284Z,6.10
2019-04-05T10:51:40.042Z,6.00
2019-04-05T10:54:13.692Z,6.00
2019-04-05T10:56:47.344Z,5.90
2019-04-05T10:59:20.970Z,5.90
2019-04-05T11:01:54.670Z,5.90
2019-04-05T11:04:28.371Z,5.90
2019-04-05T11:07:02.044Z,6.00
2019-04-05T11:09:35.798Z,6.10
2019-04-05T11:12:09.537Z,6.10
2019-04-05T11:14:43.247Z,6.00
2019-04-05T11:17:16.919Z,6.00
2019-04-05T11:19:50.659Z,6.00
2019-04-05T11:22:24.362Z,6.10
2019-04-05T11:24:58.080Z,6.30
2019-04-05T11:27:31.810Z,6.30
2019-04-05T11:30:07.890Z,6.40
2019-04-05T11:32:41.812Z,6.50
2019-04-05T11:35:15.523Z,6.40
2019-04-05T11:37:50.675Z,6.40
2019-04-05T11:40:24.582Z,6.40
2019-04-05T11:43:00.996Z,6.40
2019-04-05T11:45:35.110Z,6.40
2019-04-05T11:48:08.897Z,6.50
2019-04-05T11:50:42.600Z,6.50
2019-04-05T11:53:16.293Z,6.50
2019-04-05T11:55:50.030Z,6.60
2019-04-05T11:58:23.743Z,6.60
2019-04-05T12:00:59.133Z,6.50
2019-04-05T12:03:34.528Z,6.50
2019-04-05T12:06:08.277Z,6.60
2019-04-05T12:08:41.915Z,6.70
2019-04-05T12:11:15.657Z,6.80
2019-04-05T12:13:49.363Z,6.90
2019-04-05T12:16:23.037Z,7.00
2019-04-05T12:18:58.897Z,7.00
2019-04-05T12:21:32.625Z,7.10
2019-04-05T12:24:07.573Z,7.00
2019-04-05T12:26:42.743Z,7.00
2019-04-05T12:29:16.624Z,7.00
2019-04-05T12:31:53.249Z,7.00
2019-04-05T12:34:28.490Z,7.00
2019-04-05T12:37:01.026Z,6.90
2019-04-05T12:39:37.149Z,6.90
2019-04-05T12:42:11.987Z,6.90
2019-04-05T12:44:45.546Z,6.90
2019-04-05T12:47:19.301Z,6.90
2019-04-05T12:49:53.034Z,6.90
2019-04-05T12:52:27.609Z,6.90
2019-04-05T12:55:01.776Z,6.90
2019-04-05T12:57:35.527Z,7.00
2019-04-05T13:00:13.309Z,7.00
2019-04-05T13:02:47.781Z,7.00
2019-04-05T13:05:22.728Z,7.00
2019-04-05T13:07:56.485Z,7.00
2019-04-05T13:10:30.669Z,7.10
2019-04-05T13:13:04.548Z,6.90
2019-04-05T13:15:38.550Z,6.70
2019-04-05T13:18:13.645Z,6.70
2019-04-05T13:20:47.979Z,6.70
2019-04-05T13:23:21.685Z,6.60
2019-04-05T13:25:55.484Z,6.60
2019-04-05T13:28:29.171Z,6.60
2019-04-05T13:31:02.955Z,6.70
2019-04-05T13:33:36.697Z,6.80
2019-04-05T13:36:10.329Z,6.90
2019-04-05T13:38:54.204Z,7.00
2019-04-05T13:41:19.365Z,7.10
2019-04-05T13:43:53.083Z,7.20
2019-04-05T13:46:26.832Z,7.20
2019-04-05T13:49:00.542Z,7.10
2019-04-05T13:51:34.192Z,7.10
2019-04-05T13:54:10.686Z,7.10
2019-04-05T13:56:43.344Z,7.10
2019-04-05T13:59:17.085Z,7.20
2019-04-05T14:01:51.543Z,7.20
2019-04-05T14:04:25.365Z,7.30
2019-04-05T14:06:59.064Z,7.40
2019-04-05T14:09:32.736Z,7.50
2019-04-05T14:12:07.357Z,7.50
2019-04-05T14:14:42.232Z,7.50
2019-04-05T14:17:16.188Z,7.60
2019-04-05T14:19:50.029Z,7.60
2019-04-05T14:22:23.738Z,7.70
2019-04-05T14:24:57.883Z,7.60
2019-04-05T14:27:34.912Z,7.60
2019-04-05T14:30:07.679Z,7.60
2019-04-05T14:32:41.447Z,7.70
2019-04-05T14:35:15.148Z,7.80
2019-04-05T14:37:48.885Z,7.80
2019-04-05T14:40:28.390Z,7.90
2019-04-05T14:43:00.453Z,7.80
2019-04-05T14:45:34.185Z,7.80
2019-04-05T14:48:07.815Z,7.90
2019-04-05T14:50:41.552Z,7.90
2019-04-05T14:53:15.184Z,7.90
2019-04-05T14:55:48.996Z,7.90
2019-04-05T14:58:22.636Z,8.00
2019-04-05T15:00:56.380Z,7.90
2019-04-05T15:03:30.080Z,7.80
2019-04-05T15:06:03.816Z,7.70
2019-04-05T15:08:37.515Z,7.60
2019-04-05T15:11:11.399Z,7.50
2019-04-05T15:13:45.077Z,7.40
2019-04-05T15:16:18.894Z,7.50
2019-04-05T15:18:52.530Z,7.50
2019-04-05T15:21:26.204Z,7.50
2019-04-05T15:23:59.916Z,7.50
2019-04-05T15:26:33.648Z,7.50
2019-04-05T15:29:07.360Z,7.50
2019-04-05T15:31:41.120Z,7.50
2019-04-05T15:34:14.753Z,7.50
2019-04-05T15:36:48.562Z,7.50
2019-04-05T15:39:22.182Z,7.50
2019-04-05T15:41:55.927Z,7.60
2019-04-05T15:44:29.665Z,7.70
2019-04-05T15:47:03.686Z,7.80
2019-04-05T15:49:37.425Z,7.80
2019-04-05T15:52:18.521Z,7.80
2019-04-05T15:54:46.509Z,7.80
2019-04-05T15:57:20.297Z,7.80
2019-04-05T15:59:54.040Z,7.80
2019-04-05T16:02:27.600Z,7.70
2019-04-05T16:05:01.260Z,7.80
2019-04-05T16:07:34.889Z,7.80
2019-04-05T16:10:10.827Z,7.80
2019-04-05T16:12:44.464Z,7.70
2019-04-05T16:15:18.197Z,7.70
2019-04-05T16:17:51.907Z,7.70
2019-04-05T16:20:25.640Z,7.60
2019-04-05T16:22:59.352Z,7.60
2019-04-05T16:25:33.166Z,7.50
2019-04-05T16:28:06.907Z,7.60
2019-04-05T16:30:40.693Z,7.50
2019-04-05T16:33:14.364Z,7.60
2019-04-05T16:35:48.092Z,7.50
2019-04-05T16:38:21.815Z,7.60
2019-04-05T16:40:55.576Z,7.60
2019-04-05T16:43:29.280Z,7.60
2019-04-05T16:46:03.504Z,7.60
2019-04-05T16:48:37.207Z,7.60
2019-04-05T16:51:11.029Z,7.70
2019-04-05T16:54:00.986Z,7.60
2019-04-05T16:56:34.656Z,7.60
2019-04-05T16:59:08.351Z,7.60
2019-04-05T17:01:42.092Z,7.60
2019-04-05T17:04:15.724Z,7.50
2019-04-05T17:06:49.391Z,7.50
2019-04-05T17:09:23.035Z,7.50
2019-04-05T17:11:56.840Z,7.50
2019-04-05T17:14:30.558Z,7.50
2019-04-05T17:17:04.391Z,7.50
2019-04-05T17:19:38.096Z,7.50
2019-04-05T17:22:11.842Z,7.50
2019-04-05T17:24:45.548Z,7.50
2019-04-05T17:27:19.282Z,7.50
2019-04-05T17:29:52.988Z,7.40
2019-04-05T17:32:26.985Z,7.40
2019-04-05T17:35:00.769Z,7.40
2019-04-05T17:37:34.437Z,7.40
2019-04-05T17:40:08.541Z,7.40
2019-04-05T17:42:42.197Z,7.40
2019-04-05T17:45:15.943Z,7.40
2019-04-05T17:47:49.684Z,7.30
2019-04-05T17:50:31.979Z,7.40
2019-04-05T17:53:12.589Z,7.30
2019-04-05T17:55:41.215Z,7.30
2019-04-05T17:58:16.360Z,7.30
2019-04-05T18:00:50.166Z,7.30
2019-04-05T18:03:23.906Z,7.30
2019-04-05T18:05:57.640Z,7.30
2019-04-05T18:08:31.359Z,7.30
2019-04-05T18:11:05.169Z,7.30
2019-04-05T18:13:38.866Z,7.30
2019-04-05T18:16:12.609Z,7.40
2019-04-05T18:18:46.398Z,7.40
2019-04-05T18:21:20.120Z,7.40
2019-04-05T18:23:53.757Z,7.40
2019-04-05T18:26:27.484Z,7.40
2019-04-05T18:29:01.113Z,7.30
2019-04-05T18:31:34.856Z,7.30
2019-04-05T18:34:08.574Z,7.10
2019-04-05T18:36:42.304Z,7.10
2019-04-05T18:39:16.092Z,7.00
2019-04-05T18:41:49.835Z,6.80
2019-04-05T18:44:23.591Z,6.70
2019-04-05T18:46:57.330Z,6.60
2019-04-05T18:49:31.052Z,6.50
2019-04-05T18:52:04.970Z,6.60
2019-04-05T18:54:38.689Z,6.60
2019-04-05T18:57:14.179Z,6.60
2019-04-05T18:59:47.718Z,6.60
2019-04-05T19:02:21.452Z,6.70
2019-04-05T19:04:55.176Z,6.70
2019-04-05T19:07:28.974Z,6.80
2019-04-05T19:10:02.677Z,6.80
2019-04-05T19:12:36.518Z,6.70
2019-04-05T19:15:10.651Z,6.70
2019-04-05T19:17:44.394Z,6.60
2019-04-05T19:20:18.100Z,6.50
2019-04-05T19:22:51.848Z,6.50
2019-04-05T19:25:25.558Z,6.40
2019-04-05T19:27:59.296Z,6.30
2019-04-05T19:48:42.839Z,5.90
2019-04-05T19:51:16.519Z,5.90
2019-04-05T19:54:00.667Z,5.90
2019-04-05T19:56:25.610Z,5.80
2019-04-05T19:58:59.343Z,5.90
2019-04-05T20:01:33.055Z,5.90
2019-04-05T20:04:06.811Z,5.90
2019-04-05T20:06:40.477Z,5.80
2019-04-05T20:09:14.179Z,5.80
2019-04-05T20:11:47.855Z,5.80
2019-04-05T20:14:21.492Z,5.80
2019-04-05T20:16:55.262Z,5.70
2019-04-05T20:19:28.975Z,5.80
2019-04-05T20:22:02.753Z,5.90
2019-04-05T20:24:36.501Z,6.10
2019-04-05T20:27:10.137Z,6.30
2019-04-05T20:29:43.968Z,6.50
2019-04-05T20:32:17.671Z,6.60
2019-04-05T20:34:51.424Z,6.70
2019-04-05T20:37:25.093Z,6.80
2019-04-05T20:39:58.817Z,6.80
2019-04-05T20:42:32.556Z,6.90
2019-04-05T20:45:06.599Z,7.00
2019-04-05T20:47:40.311Z,7.00
2019-04-05T20:50:14.047Z,7.10
2019-04-05T20:52:47.689Z,7.10
2019-04-05T20:55:21.412Z,7.20
2019-04-05T20:57:55.056Z,7.20
2019-04-05T21:00:28.733Z,7.20
2019-04-05T21:03:02.440Z,7.30
2019-04-05T21:05:36.124Z,7.30
2019-04-05T21:08:09.862Z,7.30
2019-04-05T21:10:43.609Z,7.40
2019-04-05T21:13:17.359Z,7.40
2019-04-05T21:15:51.002Z,7.40
2019-04-05T21:18:24.808Z,7.40
2019-04-05T21:20:58.631Z,7.50
2019-04-05T21:23:32.409Z,7.40
2019-04-05T21:26:06.170Z,7.40
2019-04-05T21:28:39.891Z,7.50
2019-04-05T21:31:13.634Z,7.50
2019-04-05T21:33:47.434Z,7.50
2019-04-05T21:36:21.071Z,7.50
2019-04-05T21:38:54.818Z,7.50
2019-04-05T21:41:28.560Z,7.50
2019-04-05T21:44:02.209Z,7.50
2019-04-05T21:46:36.064Z,7.50
2019-04-05T21:49:09.744Z,7.60
2019-04-05T21:51:43.497Z,7.50
2019-04-05T21:54:17.208Z,7.50
2019-04-05T21:56:50.890Z,7.60
2019-04-05T21:59:24.532Z,7.60
2019-04-05T22:01:58.210Z,7.60
2019-04-05T22:04:31.957Z,7.60
2019-04-05T22:07:05.741Z,7.60
2019-04-05T22:09:39.565Z,7.60
2019-04-05T22:12:13.264Z,7.50
2019-04-05T22:14:47.007Z,7.50
2019-04-05T22:17:20.727Z,7.50
2019-04-05T22:19:54.529Z,7.50
2019-04-05T22:22:28.160Z,7.50
2019-04-05T22:25:01.900Z,7.50
2019-04-05T22:27:35.667Z,7.50
2019-04-05T22:30:10.004Z,7.50
2019-04-05T22:32:43.703Z,7.60
2019-04-05T22:35:17.445Z,7.60
2019-04-05T22:37:51.269Z,7.60
2019-04-05T22:40:25.024Z,7.60
2019-04-05T22:42:58.773Z,7.60
2019-04-05T22:45:32.507Z,7.60
2019-04-05T22:48:06.250Z,7.60
2019-04-05T22:50:39.946Z,7.70
2019-04-05T22:53:13.750Z,7.60
2019-04-05T22:55:47.570Z,7.60
2019-04-05T22:58:21.269Z,7.60
2019-04-05T23:00:55.005Z,7.60
2019-04-05T23:03:28.735Z,7.50
2019-04-05T23:06:02.436Z,7.40
2019-04-05T23:08:36.145Z,7.40
2019-04-05T23:11:09.936Z,7.30
2019-04-05T23:13:43.623Z,7.30
2019-04-05T23:16:17.374Z,7.30
2019-04-05T23:18:51.097Z,7.20
2019-04-05T23:21:24.829Z,7.20
2019-04-05T23:23:58.573Z,7.10
2019-04-05T23:26:32.318Z,7.10
2019-04-05T23:29:06.051Z,7.00
2019-04-05T23:31:39.882Z,7.00
2019-04-05T23:34:13.584Z,6.90
2019-04-05T23:36:47.320Z,6.80
2019-04-05T23:39:20.960Z,6.70
2019-04-05T23:41:54.619Z,6.80
2019-04-05T23:44:28.336Z,6.80
2019-04-05T23:47:02.145Z,6.90
2019-04-05T23:49:35.848Z,6.90
2019-04-05T23:52:09.661Z,6.90
2019-04-05T23:54:43.368Z,7.00
2019-04-05T23:57:17.126Z,7.00
2019-04-05T23:59:50.830Z,6.90
